Time;durP1;ratioP1;P1;durP2;ratioP2;P2;SDS_P1;SDS_P2;PMS_P1;PMS_P2;Temp;Humidity;BMP_temperature;BMP_pressure;BME280_temperature;BME280_humidity;BME280_pressure;Samples;Min_cycle;Max_cycle;Signal;HPM_P1;HPM_P2
2021/05/11 00:01:05;;;;;;;4.00;2.00;;;19.50;67.50;;;;;;5051737;28;20028;-67
2021/05/11 00:03:31;;;;;;;5.15;1.88;;;19.50;67.70;;;;;;5033861;28;20067;-67
2021/05/11 00:05:57;;;;;;;3.47;2.10;;;19.50;67.60;;;;;;5033746;28;20053;-66
2021/05/11 00:08:22;;;;;;;3.90;1.95;;;19.50;67.80;;;;;;5052084;28;20033;-67
2021/05/11 00:10:48;;;;;;;5.10;1.85;;;19.50;67.80;;;;;;5051774;28;20464;-67
2021/05/11 00:13:13;;;;;;;5.22;1.88;;;19.50;68.10;;;;;;5052236;28;20037;-68
2021/05/11 00:15:39;;;;;;;5.90;2.05;;;19.50;67.90;;;;;;5051643;28;20053;-67
2021/05/11 00:18:04;;;;;;;5.18;2.30;;;19.50;67.70;;;;;;5034144;28;20033;-67
2021/05/11 00:20:30;;;;;;;4.05;1.90;;;19.50;67.50;;;;;;5051725;28;20056;-68
2021/05/11 00:22:56;;;;;;;5.32;2.00;;;19.50;67.60;;;;;;5033486;28;20036;-67
2021/05/11 00:25:22;;;;;;;5.38;1.80;;;19.50;67.40;;;;;;5051789;28;20044;-67
2021/05/11 00:27:47;;;;;;;4.28;1.92;;;19.50;67.60;;;;;;5034605;28;20059;-66
2021/05/11 00:30:13;;;;;;;4.13;1.98;;;19.50;67.80;;;;;;5033575;28;20115;-66
2021/05/11 00:32:39;;;;;;;3.67;2.00;;;19.50;67.60;;;;;;5051261;28;20025;-68
2021/05/11 00:35:05;;;;;;;4.90;2.05;;;19.50;67.60;;;;;;5051365;28;20021;-67
2021/05/11 00:37:30;;;;;;;4.70;2.10;;;19.50;67.40;;;;;;5051174;28;20495;-67
2021/05/11 00:39:56;;;;;;;4.68;1.92;;;19.50;67.50;;;;;;5051678;28;20431;-67
2021/05/11 00:42:21;;;;;;;4.80;2.00;;;19.50;67.60;;;;;;5048743;28;20029;-65
2021/05/11 00:44:47;;;;;;;7.20;2.03;;;19.50;67.80;;;;;;5051023;28;20443;-67
2021/05/11 00:47:12;;;;;;;3.58;2.10;;;19.50;67.60;;;;;;5051762;28;20032;-68
2021/05/11 00:49:38;;;;;;;4.47;1.80;;;19.50;67.30;;;;;;5033737;28;20032;-67
2021/05/11 00:52:06;;;;;;;3.90;2.13;;;19.50;67.40;;;;;;5050911;28;20108;-67
2021/05/11 00:54:32;;;;;;;4.65;1.98;;;19.50;67.50;;;;;;5051516;28;20404;-67
2021/05/11 00:56:58;;;;;;;5.13;2.00;;;19.50;67.60;;;;;;5051946;28;20028;-67
2021/05/11 01:01:50;;;;;;;4.13;2.30;;;19.50;67.60;;;;;;5050846;28;20572;-67
2021/05/11 01:04:16;;;;;;;4.40;2.10;;;19.40;67.60;;;;;;5050839;28;20119;-65
2021/05/11 01:06:42;;;;;;;4.25;1.92;;;19.40;67.70;;;;;;5032412;28;20085;-68
2021/05/11 01:09:07;;;;;;;5.43;2.13;;;19.40;67.40;;;;;;5051192;28;20043;-67
2021/05/11 01:11:34;;;;;;;4.70;1.95;;;19.40;67.60;;;;;;5051475;28;20614;-67
2021/05/11 01:14:00;;;;;;;5.97;2.13;;;19.40;67.60;;;;;;5050723;28;20021;-69
2021/05/11 01:16:28;;;;;;;4.85;2.10;;;19.40;67.70;;;;;;5013884;28;20053;-67
2021/05/11 01:19:05;;;;;;;4.53;2.25;;;19.40;67.50;;;;;;5033206;28;20119;-67
2021/05/11 01:24:14;;;;;;;4.30;1.80;;;19.40;67.60;;;;;;5050342;28;20058;-67
2021/05/11 01:31:54;;;;;;;5.28;2.30;;;19.40;67.40;;;;;;5050676;28;20151;-66
2021/05/11 01:48:09;;;;;;;7.22;2.42;;;19.30;67.70;;;;;;5050588;28;20032;-67
2021/05/11 01:56:32;;;;;;;7.25;2.30;;;19.30;67.40;;;;;;5050481;28;20036;-67
2021/05/11 01:59:31;;;;;;;3.92;1.92;;;19.30;67.60;;;;;;5032011;28;20446;-67
2021/05/11 02:22:38;;;;;;;6.03;2.28;;;19.30;67.30;;;;;;5049886;28;20103;-67
2021/05/11 02:23:54;;;;;;;6.72;2.20;;;19.30;67.60;;;;;;5049842;28;20036;-67
2021/05/11 02:26:20;;;;;;;5.10;2.22;;;19.30;68.10;;;;;;5044344;28;20024;-67
2021/05/11 02:28:46;;;;;;;3.67;2.15;;;19.30;67.80;;;;;;5052150;28;20528;-67
2021/05/11 02:31:11;;;;;;;4.47;1.98;;;19.30;67.90;;;;;;5050322;28;20484;-67
2021/05/11 02:33:37;;;;;;;4.90;1.98;;;19.20;67.70;;;;;;5052968;28;20074;-67
2021/05/11 02:36:03;;;;;;;6.32;1.88;;;19.30;67.90;;;;;;5049243;28;20025;-65
2021/05/11 02:38:29;;;;;;;3.85;1.75;;;19.30;68.00;;;;;;5050087;28;20024;-67
2021/05/11 02:40:54;;;;;;;5.97;1.85;;;19.20;67.90;;;;;;5031679;28;20028;-67
2021/05/11 02:43:26;;;;;;;7.60;2.17;;;19.20;68.00;;;;;;5049616;28;20063;-67
2021/05/11 02:45:52;;;;;;;3.33;1.95;;;19.20;68.10;;;;;;5049483;28;20029;-66
2021/05/11 02:48:17;;;;;;;6.35;1.98;;;19.20;67.90;;;;;;5031613;28;20040;-68
2021/05/11 02:50:43;;;;;;;4.45;1.73;;;19.20;68.00;;;;;;5048603;28;20404;-64
2021/05/11 02:53:09;;;;;;;4.30;2.05;;;19.20;67.80;;;;;;5049958;28;20373;-68
2021/05/11 02:55:34;;;;;;;6.07;2.13;;;19.20;67.80;;;;;;5046511;28;20087;-68
2021/05/11 02:58:00;;;;;;;8.73;2.00;;;19.20;67.90;;;;;;5049761;28;20091;-66
2021/05/11 03:00:27;;;;;;;4.03;1.63;;;19.20;67.90;;;;;;5049448;28;20032;-67
2021/05/11 03:02:54;;;;;;;6.13;1.90;;;19.20;67.70;;;;;;5031306;28;20028;-67
2021/05/11 03:05:20;;;;;;;3.83;1.95;;;19.20;67.60;;;;;;5048815;28;20567;-67
2021/05/11 03:07:45;;;;;;;5.75;2.00;;;19.20;67.70;;;;;;5031749;28;20540;-65
2021/05/11 03:10:13;;;;;;;4.75;1.48;;;19.20;67.80;;;;;;5031633;28;20070;-67
2021/05/11 03:12:39;;;;;;;4.60;2.00;;;19.20;67.70;;;;;;5031586;28;20067;-67
2021/05/11 03:15:06;;;;;;;4.88;2.00;;;19.10;67.60;;;;;;5031394;28;20500;-67
2021/05/11 03:17:31;;;;;;;4.32;1.60;;;19.20;67.70;;;;;;5032164;28;20025;-66
2021/05/11 03:19:57;;;;;;;5.30;2.00;;;19.10;67.50;;;;;;5048999;28;20025;-66
2021/05/11 03:22:23;;;;;;;6.20;1.90;;;19.10;67.70;;;;;;5053421;28;20025;-66
2021/05/11 03:24:48;;;;;;;4.05;1.83;;;19.10;67.60;;;;;;5073296;28;20104;-68
2021/05/11 03:27:17;;;;;;;6.43;1.90;;;19.10;67.40;;;;;;5049075;28;20561;-65
2021/05/11 03:29:43;;;;;;;3.60;1.75;;;19.10;67.50;;;;;;5052843;28;20095;-66
2021/05/11 03:32:09;;;;;;;6.07;2.00;;;19.10;67.50;;;;;;5034696;28;20036;-66
2021/05/11 03:34:38;;;;;;;7.10;2.13;;;19.10;67.50;;;;;;5052743;28;20070;-66
2021/05/11 03:37:05;;;;;;;5.18;1.90;;;19.10;67.50;;;;;;5053425;28;20427;-67
2021/05/11 03:39:36;;;;;;;4.63;1.80;;;19.10;67.50;;;;;;5052476;28;20036;-67
2021/05/11 03:42:08;;;;;;;4.45;1.73;;;19.10;67.70;;;;;;5052240;28;20033;-67
2021/05/11 03:44:35;;;;;;;6.65;2.15;;;19.10;67.60;;;;;;5051696;28;20029;-67
2021/05/11 03:47:00;;;;;;;4.30;1.80;;;19.10;67.80;;;;;;5051655;28;20032;-67
2021/05/11 03:49:26;;;;;;;5.03;2.05;;;19.10;67.80;;;;;;5052011;28;20033;-65
2021/05/11 03:51:51;;;;;;;6.25;2.20;;;19.00;67.60;;;;;;5052897;28;20033;-67
2021/05/11 03:54:17;;;;;;;5.97;1.60;;;19.00;68.10;;;;;;5034182;28;20399;-67
2021/05/11 03:56:42;;;;;;;5.32;1.90;;;19.00;67.60;;;;;;5052932;28;20025;-66
2021/05/11 03:59:08;;;;;;;5.15;1.80;;;19.00;67.50;;;;;;5052494;28;20029;-66
2021/05/11 04:01:33;;;;;;;4.32;1.63;;;19.00;67.10;;;;;;5052331;28;20086;-67
2021/05/11 04:03:59;;;;;;;3.35;1.67;;;19.00;67.50;;;;;;5052022;28;20033;-66
2021/05/11 04:06:25;;;;;;;4.10;1.75;;;19.00;67.50;;;;;;5051969;28;20518;-66
2021/05/11 04:08:55;;;;;;;3.30;1.52;;;19.00;67.60;;;;;;5051884;28;20102;-64
2021/05/11 04:16:34;;;;;;;7.32;2.22;;;19.00;67.70;;;;;;5046299;28;20029;-66
2021/05/11 04:18:59;;;;;;;6.75;2.28;;;19.00;68.10;;;;;;5046206;28;20397;-65
2021/05/11 04:21:25;;;;;;;7.50;2.30;;;19.00;67.90;;;;;;5045496;28;20029;-65
2021/05/11 04:23:51;;;;;;;4.03;2.08;;;19.00;68.10;;;;;;5049137;28;20472;-65
2021/05/11 04:26:17;;;;;;;4.80;1.90;;;19.00;68.10;;;;;;5027699;28;20033;-69
2021/05/11 04:28:45;;;;;;;5.47;2.00;;;19.00;67.90;;;;;;5027112;28;20040;-68
2021/05/11 04:31:10;;;;;;;4.03;1.70;;;19.00;67.90;;;;;;5045699;28;20056;-69
2021/05/11 04:33:36;;;;;;;6.22;2.00;;;19.00;68.00;;;;;;5045118;28;20452;-68
2021/05/11 04:36:03;;;;;;;5.97;2.17;;;19.00;68.10;;;;;;5026128;28;20032;-70
2021/05/11 04:38:28;;;;;;;4.97;1.80;;;19.00;68.10;;;;;;5043228;28;20059;-64
2021/05/11 04:40:54;;;;;;;4.90;2.13;;;19.00;67.80;;;;;;5045390;28;20499;-65
2021/05/11 04:43:24;;;;;;;6.85;2.92;;;19.00;68.10;;;;;;5044800;28;20539;-66
2021/05/11 04:45:51;;;;;;;14.05;3.17;;;19.00;68.20;;;;;;5025596;28;20032;-64
2021/05/11 04:48:17;;;;;;;6.88;2.70;;;19.00;68.40;;;;;;5039875;28;20032;-65
2021/05/11 04:50:42;;;;;;;9.18;2.33;;;19.00;68.80;;;;;;5042352;28;20032;-68
2021/05/11 04:53:08;;;;;;;8.75;2.47;;;19.10;68.70;;;;;;5044431;28;20055;-68
2021/05/11 04:55:34;;;;;;;10.88;2.50;;;19.10;69.50;;;;;;5026374;28;20411;-66
2021/05/11 04:58:00;;;;;;;8.27;2.13;;;19.10;69.70;;;;;;5044721;28;20024;-65
2021/05/11 05:00:26;;;;;;;5.75;2.45;;;19.20;69.60;;;;;;5044816;28;20448;-74
2021/05/11 05:02:55;;;;;;;10.75;2.25;;;19.20;70.60;;;;;;5043413;28;20392;-66
2021/05/11 05:05:21;;;;;;;9.20;2.22;;;19.20;70.30;;;;;;5042441;28;20052;-71
2021/05/11 05:07:47;;;;;;;9.40;2.42;;;19.20;70.00;;;;;;5044245;28;20082;-71
2021/05/11 05:10:13;;;;;;;6.50;2.25;;;19.20;70.00;;;;;;5044551;28;20056;-66
2021/05/11 05:12:41;;;;;;;7.60;2.00;;;19.20;68.70;;;;;;5043572;28;20025;-70
2021/05/11 05:15:07;;;;;;;7.45;2.30;;;19.20;69.00;;;;;;5041356;28;20721;-69
2021/05/11 05:17:33;;;;;;;5.60;2.28;;;19.20;69.40;;;;;;5044530;28;20029;-68
2021/05/11 05:19:58;;;;;;;16.80;2.22;;;19.20;69.60;;;;;;5043475;28;20025;-68
2021/05/11 05:22:24;;;;;;;12.02;2.45;;;19.20;69.20;;;;;;5028047;28;20036;-71
2021/05/11 05:24:52;;;;;;;11.57;2.42;;;19.20;69.70;;;;;;5043653;28;20052;-66
2021/05/11 05:27:26;;;;;;;9.35;2.25;;;19.20;68.50;;;;;;5043218;28;20502;-69
2021/05/11 05:29:52;;;;;;;12.25;2.30;;;19.20;69.50;;;;;;5036282;28;20423;-71
2021/05/11 05:32:18;;;;;;;13.73;2.25;;;19.20;70.00;;;;;;5043928;28;20021;-73
2021/05/11 05:34:44;;;;;;;16.30;2.17;;;19.20;69.90;;;;;;5044190;28;20515;-76
2021/05/11 05:37:10;;;;;;;9.52;2.22;;;19.20;70.70;;;;;;5044344;28;20024;-69
2021/05/11 05:39:43;;;;;;;12.23;2.42;;;19.10;70.20;;;;;;5044964;28;20056;-68
2021/05/11 05:42:08;;;;;;;11.38;3.35;;;19.20;69.20;;;;;;5043957;28;20025;-73
2021/05/11 05:44:34;;;;;;;18.33;3.22;;;19.20;70.00;;;;;;5032850;28;20484;-73
2021/05/11 05:47:00;;;;;;;16.60;2.78;;;19.10;70.30;;;;;;5049310;28;20546;-69
2021/05/11 05:49:30;;;;;;;9.80;2.72;;;19.20;70.50;;;;;;5031742;28;20588;-68
2021/05/11 05:52:02;;;;;;;12.98;2.90;;;19.10;69.80;;;;;;5050550;28;20017;-70
2021/05/11 05:54:27;;;;;;;9.02;2.20;;;19.10;70.00;;;;;;5050612;28;20489;-68
2021/05/11 05:56:53;;;;;;;7.15;2.20;;;19.10;70.20;;;;;;5050449;28;20024;-68
2021/05/11 05:59:18;;;;;;;9.30;2.33;;;19.10;70.00;;;;;;5032972;28;20060;-67
2021/05/11 06:01:44;;;;;;;5.57;2.00;;;19.00;70.00;;;;;;5050221;28;20403;-67
2021/05/11 06:04:13;;;;;;;7.82;1.63;;;19.00;70.00;;;;;;5049811;28;20025;-65
2021/05/11 06:06:43;;;;;;;7.10;2.00;;;19.00;69.80;;;;;;5032482;28;20025;-68
2021/05/11 06:09:27;;;;;;;8.70;1.80;;;19.00;69.70;;;;;;5050804;28;20025;-67
2021/05/11 06:19:35;;;;;;;5.60;1.60;;;19.00;69.30;;;;;;5050234;28;20032;-67
2021/05/11 06:22:00;;;;;;;8.88;1.80;;;19.00;69.20;;;;;;5032673;28;20033;-66
2021/05/11 06:24:26;;;;;;;4.15;1.50;;;19.00;69.20;;;;;;5050108;28;20087;-67
2021/05/11 06:26:52;;;;;;;5.82;1.55;;;19.00;69.00;;;;;;5031969;28;20028;-68
2021/05/11 06:29:20;;;;;;;4.00;1.40;;;19.00;69.10;;;;;;5032498;28;20029;-68
2021/05/11 06:31:45;;;;;;;6.00;1.85;;;19.00;69.00;;;;;;5032563;28;20032;-68
2021/05/11 06:34:11;;;;;;;4.55;1.42;;;19.00;69.00;;;;;;5049687;28;20025;-70
2021/05/11 06:36:37;;;;;;;4.38;1.50;;;19.00;68.90;;;;;;5032543;28;20017;-67
2021/05/11 06:39:09;;;;;;;5.07;1.70;;;19.00;68.80;;;;;;5032556;28;20396;-67
2021/05/11 06:41:36;;;;;;;5.05;1.50;;;19.00;68.70;;;;;;5049759;28;20119;-68
2021/05/11 06:44:07;;;;;;;4.18;1.42;;;19.00;68.70;;;;;;5049995;28;20139;-69
2021/05/11 06:49:36;;;;;;;4.03;1.40;;;19.00;68.60;;;;;;5050021;28;20113;-67
2021/05/11 06:54:46;;;;;;;3.88;1.33;;;19.00;68.50;;;;;;5049591;28;20539;-67
2021/05/11 06:57:11;;;;;;;3.53;1.20;;;19.00;68.40;;;;;;5051026;28;20025;-67
2021/05/11 06:59:37;;;;;;;4.88;1.27;;;19.00;68.30;;;;;;5054172;28;20461;-68
2021/05/11 07:02:03;;;;;;;3.40;1.10;;;18.90;68.30;;;;;;5035320;28;20105;-69
2021/05/11 07:04:28;;;;;;;2.97;1.38;;;19.00;68.30;;;;;;5053690;28;20108;-68
2021/05/11 07:06:54;;;;;;;5.43;1.60;;;18.90;68.20;;;;;;5036104;28;20123;-64
2021/05/11 07:14:30;;;;;;;4.38;1.45;;;18.90;68.10;;;;;;5053415;28;20033;-67
2021/05/11 07:16:56;;;;;;;3.97;1.30;;;18.90;68.00;;;;;;5035347;28;20025;-69
2021/05/11 07:19:21;;;;;;;3.63;1.10;;;18.90;68.00;;;;;;5053748;28;20076;-68
2021/05/11 07:21:47;;;;;;;4.07;1.50;;;18.90;67.90;;;;;;5053791;28;20024;-68
2021/05/11 07:24:13;;;;;;;4.78;1.33;;;18.90;67.90;;;;;;5035045;28;20041;-67
2021/05/11 07:27:01;;;;;;;5.47;1.52;;;19.00;67.80;;;;;;5033514;28;20021;-69
2021/05/11 07:29:51;;;;;;;3.03;1.13;;;18.90;67.80;;;;;;5033774;28;20022;-65
2021/05/11 07:32:15;;;;;;;3.05;1.17;;;18.90;67.60;;;;;;5032829;28;20630;-67
2021/05/11 07:34:43;;;;;;;4.22;1.30;;;19.00;67.60;;;;;;5015621;28;20025;-68
2021/05/11 07:37:09;;;;;;;1.85;0.98;;;19.00;67.60;;;;;;5033675;28;20457;-67
2021/05/11 07:39:35;;;;;;;2.08;1.15;;;19.00;67.40;;;;;;5015169;28;20033;-67
2021/05/11 07:42:00;;;;;;;2.75;1.13;;;19.00;67.30;;;;;;5033436;28;20025;-67
2021/05/11 07:44:27;;;;;;;4.03;1.13;;;19.00;67.30;;;;;;5033046;28;20461;-68
2021/05/11 07:47:01;;;;;;;2.22;1.10;;;19.00;67.20;;;;;;5032762;28;20466;-67
2021/05/11 08:03:45;;;;;;;3.10;1.10;;;19.00;66.80;;;;;;5052506;28;20039;-67
2021/05/11 08:17:08;;;;;;;2.92;0.93;;;19.00;66.40;;;;;;4990530;28;20029;-68
2021/05/11 08:22:36;;;;;;;2.53;0.85;;;19.00;66.40;;;;;;5026965;28;20573;-68
2021/05/11 08:27:52;;;;;;;1.60;0.90;;;19.00;66.20;;;;;;5052933;28;20039;-67
2021/05/11 08:30:18;;;;;;;2.17;0.85;;;19.00;65.90;;;;;;5052571;28;20025;-68
2021/05/11 08:32:43;;;;;;;2.15;0.90;;;19.00;66.00;;;;;;5051909;28;20132;-68
2021/05/11 08:35:09;;;;;;;1.42;0.70;;;19.10;66.00;;;;;;5052011;28;20028;-68
2021/05/11 08:37:34;;;;;;;2.03;0.80;;;19.10;66.10;;;;;;5034340;28;20028;-68
2021/05/11 08:40:00;;;;;;;2.17;0.90;;;19.00;66.10;;;;;;5051775;28;20115;-68
2021/05/11 08:42:26;;;;;;;2.30;0.90;;;19.10;65.90;;;;;;5052107;28;20116;-68
2021/05/11 08:44:52;;;;;;;1.58;0.80;;;19.10;65.70;;;;;;5051918;28;20060;-66
2021/05/11 08:47:19;;;;;;;1.92;0.90;;;19.10;65.70;;;;;;5051545;28;20504;-67
2021/05/11 08:49:46;;;;;;;2.70;0.80;;;19.10;65.70;;;;;;5033995;28;20072;-67
2021/05/11 08:55:04;;;;;;;1.98;0.80;;;19.10;66.30;;;;;;5051512;28;20024;-69
2021/05/11 09:25:23;;;;;;;0.90;0.70;;;19.10;65.20;;;;;;5031155;28;20036;-68
2021/05/11 09:30:48;;;;;;;1.73;1.00;;;19.20;65.60;;;;;;5031019;28;20440;-67
2021/05/11 09:33:23;;;;;;;1.40;0.80;;;19.20;65.70;;;;;;5030403;28;20084;-68
2021/05/11 09:55:50;;;;;;;0.90;0.70;;;19.10;65.00;;;;;;5050678;28;20017;-68
2021/05/11 10:10:39;;;;;;;0.98;0.70;;;19.10;64.80;;;;;;5050942;28;20044;-68
2021/05/11 10:36:20;;;;;;;1.00;0.50;;;19.10;64.70;;;;;;5051482;28;20051;-69
2021/05/11 10:49:31;;;;;;;1.10;0.60;;;19.10;64.60;;;;;;5054423;28;20029;-66
2021/05/11 10:52:13;;;;;;;1.13;0.68;;;19.10;64.80;;;;;;5053691;28;20042;-69
2021/05/11 10:54:53;;;;;;;0.82;0.63;;;19.10;64.80;;;;;;5054109;28;20024;-67
2021/05/11 11:03:18;;;;;;;1.95;0.65;;;19.00;64.70;;;;;;5054248;28;20025;-66
2021/05/11 11:05:46;;;;;;;0.65;0.57;;;19.00;64.70;;;;;;5035726;28;20570;-65
2021/05/11 11:08:31;;;;;;;0.70;0.57;;;19.10;64.80;;;;;;5053393;28;20033;-69
2021/05/11 11:11:03;;;;;;;0.75;0.60;;;19.10;64.60;;;;;;5036090;28;20086;-67
2021/05/11 11:13:29;;;;;;;1.00;0.68;;;19.10;64.80;;;;;;5035422;28;20033;-67
2021/05/11 11:16:00;;;;;;;1.35;0.63;;;19.10;64.60;;;;;;5053532;28;20018;-65
2021/05/11 11:18:25;;;;;;;0.60;0.55;;;19.10;64.60;;;;;;5053968;28;20103;-66
2021/05/11 11:23:53;;;;;;;0.47;0.47;;;19.10;64.50;;;;;;5053843;28;20028;-67
2021/05/11 11:26:40;;;;;;;0.60;0.60;;;19.10;64.50;;;;;;5053423;28;20035;-69
2021/05/11 11:29:11;;;;;;;1.00;0.68;;;19.10;64.50;;;;;;5052959;28;20025;-65
2021/05/11 11:31:38;;;;;;;1.08;0.65;;;19.10;64.30;;;;;;5035683;28;20376;-66
2021/05/11 11:34:23;;;;;;;0.95;0.60;;;19.10;64.50;;;;;;5053236;28;20029;-68
2021/05/11 11:36:48;;;;;;;0.98;0.60;;;19.10;64.70;;;;;;5053053;28;20023;-67
2021/05/11 11:39:29;;;;;;;1.95;0.75;;;19.20;65.10;;;;;;5035581;28;20454;-67
2021/05/11 11:42:00;;;;;;;1.00;0.63;;;19.20;64.90;;;;;;5035540;28;20033;-67
2021/05/11 11:44:28;;;;;;;0.70;0.60;;;19.30;64.70;;;;;;5034307;28;20036;-67
2021/05/11 11:46:57;;;;;;;0.80;0.50;;;19.30;64.80;;;;;;5053243;28;20025;-68
2021/05/11 11:49:25;;;;;;;1.45;0.82;;;19.30;64.50;;;;;;5053237;28;20108;-69
2021/05/11 11:52:07;;;;;;;1.63;0.80;;;19.30;64.70;;;;;;5052707;28;20488;-67
2021/05/11 11:54:43;;;;;;;1.90;0.80;;;19.30;64.70;;;;;;5034991;28;20033;-68
2021/05/11 12:00:30;;;;;;;1.45;0.70;;;19.30;64.70;;;;;;5052348;28;20094;-66
2021/05/11 12:03:04;;;;;;;0.82;0.60;;;19.20;64.80;;;;;;5052875;28;20100;-69
2021/05/11 12:05:48;;;;;;;0.68;0.63;;;19.20;64.70;;;;;;5034306;28;20056;-68
2021/05/11 12:08:34;;;;;;;1.52;0.70;;;19.20;64.50;;;;;;5052816;28;20387;-68
2021/05/11 12:11:08;;;;;;;0.80;0.70;;;19.20;64.20;;;;;;5034602;28;20033;-67
2021/05/11 12:13:39;;;;;;;0.90;0.70;;;19.20;64.70;;;;;;5052569;28;20021;-68
2021/05/11 12:16:15;;;;;;;0.80;0.60;;;19.20;64.50;;;;;;5052588;28;20373;-68
2021/05/11 12:21:31;;;;;;;1.45;0.80;;;19.20;64.70;;;;;;5052205;28;20024;-66
2021/05/11 12:24:10;;;;;;;1.13;0.77;;;19.20;64.70;;;;;;5034536;28;20058;-68
2021/05/11 12:26:38;;;;;;;0.88;0.70;;;19.20;64.80;;;;;;5034649;28;20031;-67
2021/05/11 12:29:07;;;;;;;0.88;0.60;;;19.20;64.70;;;;;;5051860;28;20432;-67
2021/05/11 12:31:41;;;;;;;1.65;0.70;;;19.20;64.80;;;;;;5051044;28;20017;-67
2021/05/11 12:34:08;;;;;;;0.75;0.70;;;19.20;64.80;;;;;;5033616;28;20016;-68
2021/05/11 12:36:48;;;;;;;1.98;0.80;;;19.20;64.80;;;;;;5034246;28;20365;-67
2021/05/11 12:39:28;;;;;;;0.97;0.63;;;19.20;64.80;;;;;;5052349;28;20028;-68
2021/05/11 12:42:12;;;;;;;1.70;0.70;;;19.30;64.70;;;;;;5033423;28;20025;-68
2021/05/11 12:44:38;;;;;;;1.48;0.80;;;19.30;64.00;;;;;;5033011;28;20535;-70
2021/05/11 12:47:05;;;;;;;6.05;2.30;;;19.30;65.00;;;;;;5051104;28;20036;-67
2021/05/11 12:49:31;;;;;;;10.50;3.50;;;19.30;64.70;;;;;;5051312;28;20074;-68
2021/05/11 12:51:57;;;;;;;106.72;45.30;;;19.30;65.20;;;;;;5033158;28;20017;-69
2021/05/11 12:54:39;;;;;;;406.42;205.02;;;19.30;65.80;;;;;;5050870;28;20078;-68
2021/05/11 13:02:35;;;;;;;294.35;146.25;;;19.30;66.80;;;;;;5050989;28;20029;-67
2021/05/11 13:16:55;;;;;;;210.55;98.07;;;19.30;66.00;;;;;;5046405;28;20098;-69
2021/05/11 13:27:44;;;;;;;169.23;85.00;;;19.40;65.20;;;;;;5050751;28;20044;-68
2021/05/11 13:35:02;;;;;;;148.95;76.75;;;19.30;65.60;;;;;;5050369;28;20068;-69
2021/05/11 13:37:28;;;;;;;166.77;81.68;;;19.30;65.40;;;;;;5032819;28;20032;-68
2021/05/11 13:39:55;;;;;;;159.40;76.00;;;19.30;65.50;;;;;;5033088;28;20021;-69
2021/05/11 13:42:22;;;;;;;146.73;73.40;;;19.30;65.50;;;;;;5032536;28;20056;-67
2021/05/11 13:44:49;;;;;;;138.43;71.88;;;19.30;65.60;;;;;;5032214;28;20056;-69
2021/05/11 13:47:14;;;;;;;145.35;72.35;;;19.30;65.60;;;;;;5049991;28;20082;-69
2021/05/11 13:49:40;;;;;;;131.95;69.25;;;19.30;65.40;;;;;;5050294;28;20025;-68
2021/05/11 13:52:06;;;;;;;139.65;72.88;;;19.30;65.60;;;;;;5032702;28;20074;-67
2021/05/11 13:54:31;;;;;;;128.68;67.63;;;19.30;65.40;;;;;;5032466;28;20036;-68
2021/05/11 13:57:11;;;;;;;132.63;66.82;;;19.30;65.50;;;;;;5049762;28;20505;-67
2021/05/11 14:02:35;;;;;;;126.30;64.90;;;19.30;65.70;;;;;;5049511;28;20178;-68
2021/05/11 14:05:01;;;;;;;113.32;59.88;;;19.30;65.20;;;;;;5048687;28;20036;-66
2021/05/11 14:07:26;;;;;;;111.63;57.42;;;19.30;65.60;;;;;;5031476;28;20037;-68
2021/05/11 14:09:52;;;;;;;110.43;57.42;;;19.30;65.70;;;;;;5031353;28;20033;-70
2021/05/11 14:12:17;;;;;;;115.25;58.60;;;19.30;65.70;;;;;;5047699;28;20465;-67
2021/05/11 14:14:43;;;;;;;111.68;57.10;;;19.30;64.80;;;;;;5049635;28;20017;-68
2021/05/11 14:17:08;;;;;;;104.95;56.17;;;19.30;65.60;;;;;;5049768;28;20033;-66
2021/05/11 14:19:35;;;;;;;101.20;54.33;;;19.30;65.30;;;;;;5050132;28;20114;-67
2021/05/11 14:22:01;;;;;;;102.03;53.55;;;19.30;65.40;;;;;;5047813;28;20060;-69
2021/05/11 14:24:27;;;;;;;99.43;51.95;;;19.40;65.40;;;;;;5031583;28;20102;-67
2021/05/11 14:26:52;;;;;;;101.78;51.10;;;19.40;65.20;;;;;;5048010;28;20040;-67
2021/05/11 14:29:18;;;;;;;103.60;53.83;;;19.40;65.60;;;;;;5050252;28;20043;-67
2021/05/11 14:31:44;;;;;;;94.05;49.25;;;19.50;64.70;;;;;;5049371;28;20052;-67
2021/05/11 14:34:09;;;;;;;89.40;47.55;;;19.50;64.70;;;;;;5047695;28;20025;-69
2021/05/11 14:36:36;;;;;;;86.88;45.72;;;19.50;65.10;;;;;;5032153;28;20514;-66
2021/05/11 14:39:04;;;;;;;89.03;45.42;;;19.50;64.60;;;;;;5050048;28;20566;-69
2021/05/11 14:41:30;;;;;;;90.68;45.58;;;19.50;64.30;;;;;;5047756;28;20052;-69
2021/05/11 14:43:55;;;;;;;86.93;46.08;;;19.50;64.70;;;;;;5049814;28;20753;-66
2021/05/11 14:46:21;;;;;;;83.47;45.63;;;19.50;64.70;;;;;;5048727;28;20247;-65
2021/05/11 14:48:46;;;;;;;85.97;44.03;;;19.50;64.40;;;;;;5030327;28;20067;-68
2021/05/11 14:51:12;;;;;;;79.03;44.15;;;19.50;64.70;;;;;;5049962;28;20087;-65
2021/05/11 14:53:38;;;;;;;77.63;43.15;;;19.50;64.40;;;;;;5030813;28;20104;-69
2021/05/11 14:56:05;;;;;;;77.70;39.90;;;19.50;64.30;;;;;;5031236;28;20490;-68
2021/05/11 14:58:31;;;;;;;66.60;36.22;;;19.50;64.20;;;;;;5048234;28;20439;-68
2021/05/11 15:00:56;;;;;;;71.30;36.38;;;19.50;64.20;;;;;;5049880;28;20033;-67
2021/05/11 15:03:22;;;;;;;72.03;37.50;;;19.50;65.10;;;;;;5048605;28;20033;-68
2021/05/11 15:05:47;;;;;;;63.45;35.05;;;19.50;64.20;;;;;;5048218;28;20041;-69
2021/05/11 15:08:13;;;;;;;70.70;35.45;;;19.50;64.40;;;;;;5047925;28;20048;-65
2021/05/11 15:10:39;;;;;;;61.60;34.97;;;19.50;64.60;;;;;;5048805;28;20025;-68
2021/05/11 15:13:05;;;;;;;64.25;34.97;;;19.50;64.10;;;;;;5050062;28;20480;-67
2021/05/11 15:15:33;;;;;;;60.65;33.75;;;19.50;64.10;;;;;;5049827;28;20480;-68
2021/05/11 15:17:59;;;;;;;58.03;31.40;;;19.50;64.00;;;;;;5049994;28;20492;-69
2021/05/11 15:20:25;;;;;;;56.17;31.40;;;19.50;64.50;;;;;;5035707;28;20491;-68
2021/05/11 15:22:52;;;;;;;56.50;29.60;;;19.50;64.10;;;;;;5035599;28;20071;-68
2021/05/11 15:25:19;;;;;;;58.15;30.45;;;19.50;64.40;;;;;;5052975;28;20059;-67
2021/05/11 15:27:44;;;;;;;49.75;28.50;;;19.50;64.60;;;;;;5035636;28;20562;-63
2021/05/11 15:30:10;;;;;;;49.45;27.08;;;19.40;64.50;;;;;;5053154;28;20112;-73
2021/05/11 15:32:41;;;;;;;49.75;26.17;;;19.50;64.20;;;;;;5049994;28;20025;-67
2021/05/11 15:35:12;;;;;;;47.95;28.05;;;19.40;65.10;;;;;;5034683;28;20024;-68
2021/05/11 15:37:39;;;;;;;46.83;25.45;;;19.50;64.70;;;;;;5052937;28;20439;-69
2021/05/11 15:40:09;;;;;;;53.33;28.30;;;19.50;64.90;;;;;;5052527;28;20029;-68
2021/05/11 15:42:35;;;;;;;51.25;25.60;;;19.40;64.70;;;;;;5053371;28;20488;-67
2021/05/11 15:45:01;;;;;;;49.65;25.42;;;19.50;65.10;;;;;;5052110;28;20111;-67
2021/05/11 15:47:26;;;;;;;42.25;24.17;;;19.50;65.10;;;;;;5034503;28;20396;-67
2021/05/11 15:49:52;;;;;;;41.28;22.48;;;19.40;64.50;;;;;;5034865;28;20017;-68
2021/05/11 15:52:18;;;;;;;43.80;23.48;;;19.50;65.10;;;;;;5052951;28;20025;-67
2021/05/11 15:54:43;;;;;;;47.35;23.73;;;19.50;65.30;;;;;;5051260;28;20025;-68
2021/05/11 15:57:09;;;;;;;43.22;22.73;;;19.50;65.20;;;;;;5052513;28;20098;-68
2021/05/11 15:59:35;;;;;;;42.63;22.02;;;19.40;65.30;;;;;;5053218;28;20104;-67
2021/05/11 16:02:00;;;;;;;39.30;21.13;;;19.40;65.30;;;;;;5051639;28;20047;-69
2021/05/11 16:04:26;;;;;;;36.15;20.00;;;19.40;65.30;;;;;;5040491;28;20029;-68
2021/05/11 16:06:52;;;;;;;33.72;19.40;;;19.40;65.30;;;;;;5032824;28;20035;-68
2021/05/11 16:09:18;;;;;;;43.78;21.05;;;19.40;65.20;;;;;;5024684;28;20025;-68
2021/05/11 16:11:44;;;;;;;44.92;19.30;;;19.40;65.30;;;;;;5022193;28;20444;-71
2021/05/11 16:14:10;;;;;;;36.95;18.15;;;19.40;65.30;;;;;;5023527;28;20037;-68
2021/05/11 16:16:35;;;;;;;38.95;17.75;;;19.40;65.50;;;;;;5030869;28;20036;-70
2021/05/11 16:19:01;;;;;;;43.75;17.73;;;19.40;65.30;;;;;;5022138;28;20409;-69
2021/05/11 16:21:26;;;;;;;37.22;16.88;;;19.40;65.40;;;;;;5019544;28;20040;-69
2021/05/11 16:23:55;;;;;;;41.30;17.27;;;19.50;65.60;;;;;;5028761;28;20029;-69
2021/05/11 16:26:21;;;;;;;40.85;17.88;;;19.50;65.80;;;;;;5024893;28;20038;-67
2021/05/11 16:28:46;;;;;;;37.40;17.27;;;19.50;65.10;;;;;;5028316;28;20497;-70
2021/05/11 16:31:12;;;;;;;78.38;18.75;;;19.50;65.40;;;;;;5027769;28;20041;-65
2021/05/11 16:33:37;;;;;;;49.25;16.10;;;19.40;65.80;;;;;;5028649;28;20041;-70
2021/05/11 16:36:03;;;;;;;34.55;15.98;;;19.50;65.70;;;;;;5028634;28;20060;-68
2021/05/11 16:38:29;;;;;;;43.60;15.07;;;19.40;65.90;;;;;;5025408;28;20022;-67
2021/05/11 16:40:56;;;;;;;30.88;15.07;;;19.40;66.10;;;;;;5016924;28;20018;-67
2021/05/11 16:49:19;;;;;;;35.63;13.38;;;19.40;66.00;;;;;;5038525;28;20061;-71
2021/05/11 16:51:45;;;;;;;32.40;13.27;;;19.40;66.70;;;;;;5039832;28;20052;-70
2021/05/11 16:54:11;;;;;;;28.33;13.52;;;19.40;66.60;;;;;;5037642;28;20043;-69
2021/05/11 16:56:37;;;;;;;29.67;13.32;;;19.40;66.90;;;;;;5044324;28;20052;-69
2021/05/11 16:59:03;;;;;;;32.22;11.93;;;19.40;67.80;;;;;;5037602;28;20018;-69
2021/05/11 17:01:29;;;;;;;25.85;10.90;;;19.40;67.80;;;;;;5044100;28;20040;-69